sensor_id;sensor_type;location;lat;lon;timestamp;temperature;humidity
39347;DHT22;26262;49.836;6.632;2023-06-10T00:01:24;15.10;99.90
39347;DHT22;26262;49.836;6.632;2023-06-10T00:03:50;14.90;99.90
39347;DHT22;26262;49.836;6.632;2023-06-10T00:06:17;15.10;99.90
39347;DHT22;26262;49.836;6.632;2023-06-10T00:08:43;15.10;99.90
39347;DHT22;26262;49.836;6.632;2023-06-10T00:11:09;15.00;99.90
39347;DHT22;26262;49.836;6.632;2023-06-10T00:13:35;15.20;99.90
39347;DHT22;26262;49.836;6.632;2023-06-10T00:16:01;15.20;99.90
39347;DHT22;26262;49.836;6.632;2023-06-10T00:18:26;15.20;99.90
39347;DHT22;26262;49.836;6.632;2023-06-10T00:20:52;15.10;99.90
39347;DHT22;26262;49.836;6.632;2023-06-10T00:23:21;15.00;99.90
39347;DHT22;26262;49.836;6.632;2023-06-10T00:25:47;14.90;99.90
39347;DHT22;26262;49.836;6.632;2023-06-10T00:28:12;14.90;99.90
39347;DHT22;26262;49.836;6.632;2023-06-10T00:30:39;14.90;99.90
39347;DHT22;26262;49.836;6.632;2023-06-10T00:33:04;14.80;99.90
39347;DHT22;26262;49.836;6.632;2023-06-10T00:35:30;15.00;99.90
39347;DHT22;26262;49.836;6.632;2023-06-10T00:37:55;15.00;99.90
39347;DHT22;26262;49.836;6.632;2023-06-10T00:40:21;14.90;99.90
39347;DHT22;26262;49.836;6.632;2023-06-10T00:42:46;14.90;99.90
39347;DHT22;26262;49.836;6.632;2023-06-10T00:45:12;14.80;99.90
39347;DHT22;26262;49.836;6.632;2023-06-10T00:47:38;14.80;99.90
39347;DHT22;26262;49.836;6.632;2023-06-10T00:50:05;14.90;99.90
39347;DHT22;26262;49.836;6.632;2023-06-10T00:52:31;14.70;99.90
39347;DHT22;26262;49.836;6.632;2023-06-10T00:54:57;14.50;99.90
39347;DHT22;26262;49.836;6.632;2023-06-10T00:57:24;14.70;99.90
39347;DHT22;26262;49.836;6.632;2023-06-10T00:59:51;14.60;99.90
39347;DHT22;26262;49.836;6.632;2023-06-10T01:02:16;14.60;99.90
39347;DHT22;26262;49.836;6.632;2023-06-10T01:04:42;14.30;99.90
39347;DHT22;26262;49.836;6.632;2023-06-10T01:07:36;14.40;99.90
39347;DHT22;26262;49.836;6.632;2023-06-10T01:10:20;14.60;99.90
39347;DHT22;26262;49.836;6.632;2023-06-10T01:13:00;14.40;99.90
39347;DHT22;26262;49.836;6.632;2023-06-10T01:15:29;14.50;99.90
39347;DHT22;26262;49.836;6.632;2023-06-10T01:18:03;14.50;99.90
39347;DHT22;26262;49.836;6.632;2023-06-10T01:20:30;14.60;99.90
39347;DHT22;26262;49.836;6.632;2023-06-10T01:22:58;14.40;99.90
39347;DHT22;26262;49.836;6.632;2023-06-10T01:25:26;14.30;99.90
39347;DHT22;26262;49.836;6.632;2023-06-10T01:33:46;14.00;99.90
39347;DHT22;26262;49.836;6.632;2023-06-10T01:36:15;13.80;99.90
39347;DHT22;26262;49.836;6.632;2023-06-10T01:38:44;13.70;99.90
39347;DHT22;26262;49.836;6.632;2023-06-10T01:41:13;13.80;99.90
39347;DHT22;26262;49.836;6.632;2023-06-10T01:43:39;13.80;99.90
39347;DHT22;26262;49.836;6.632;2023-06-10T01:46:05;14.00;99.90
39347;DHT22;26262;49.836;6.632;2023-06-10T01:48:32;14.00;99.90
39347;DHT22;26262;49.836;6.632;2023-06-10T01:50:57;14.20;99.90
39347;DHT22;26262;49.836;6.632;2023-06-10T01:53:23;13.90;99.90
39347;DHT22;26262;49.836;6.632;2023-06-10T01:55:49;14.00;99.90
39347;DHT22;26262;49.836;6.632;2023-06-10T01:58:14;13.70;99.90
39347;DHT22;26262;49.836;6.632;2023-06-10T02:00:40;13.90;99.90
39347;DHT22;26262;49.836;6.632;2023-06-10T02:03:06;13.90;99.90
39347;DHT22;26262;49.836;6.632;2023-06-10T02:05:31;13.90;99.90
39347;DHT22;26262;49.836;6.632;2023-06-10T02:07:57;13.90;99.90
39347;DHT22;26262;49.836;6.632;2023-06-10T02:10:23;13.80;99.90
39347;DHT22;26262;49.836;6.632;2023-06-10T02:12:48;13.80;99.90
39347;DHT22;26262;49.836;6.632;2023-06-10T02:15:14;13.50;99.90
39347;DHT22;26262;49.836;6.632;2023-06-10T02:17:39;13.60;99.90
39347;DHT22;26262;49.836;6.632;2023-06-10T02:20:06;13.70;99.90
39347;DHT22;26262;49.836;6.632;2023-06-10T02:22:32;13.40;99.90
39347;DHT22;26262;49.836;6.632;2023-06-10T02:24:58;13.50;99.90
39347;DHT22;26262;49.836;6.632;2023-06-10T02:27:24;13.40;99.90
39347;DHT22;26262;49.836;6.632;2023-06-10T02:29:50;13.60;99.90
39347;DHT22;26262;49.836;6.632;2023-06-10T02:32:21;13.60;99.90
39347;DHT22;26262;49.836;6.632;2023-06-10T02:34:47;13.50;99.90
39347;DHT22;26262;49.836;6.632;2023-06-10T02:37:14;13.40;99.90
39347;DHT22;26262;49.836;6.632;2023-06-10T02:39:40;13.60;99.90
39347;DHT22;26262;49.836;6.632;2023-06-10T02:42:06;13.50;99.90
39347;DHT22;26262;49.836;6.632;2023-06-10T02:44:31;13.50;99.90
39347;DHT22;26262;49.836;6.632;2023-06-10T02:46:57;13.50;99.90
39347;DHT22;26262;49.836;6.632;2023-06-10T02:49:23;13.50;99.90
39347;DHT22;26262;49.836;6.632;2023-06-10T02:51:50;13.50;99.90
39347;DHT22;26262;49.836;6.632;2023-06-10T02:54:19;13.60;99.90
39347;DHT22;26262;49.836;6.632;2023-06-10T02:56:45;13.30;99.90
39347;DHT22;26262;49.836;6.632;2023-06-10T02:59:11;13.20;99.90
39347;DHT22;26262;49.836;6.632;2023-06-10T03:01:37;13.30;99.90
39347;DHT22;26262;49.836;6.632;2023-06-10T03:04:05;13.40;99.90
39347;DHT22;26262;49.836;6.632;2023-06-10T03:06:31;13.30;99.90
39347;DHT22;26262;49.836;6.632;2023-06-10T03:09:01;13.40;99.90
39347;DHT22;26262;49.836;6.632;2023-06-10T03:11:29;13.40;99.90
39347;DHT22;26262;49.836;6.632;2023-06-10T03:13:56;13.30;99.90
39347;DHT22;26262;49.836;6.632;2023-06-10T03:16:21;13.30;99.90
39347;DHT22;26262;49.836;6.632;2023-06-10T03:18:48;13.20;99.90
39347;DHT22;26262;49.836;6.632;2023-06-10T03:21:14;13.30;99.90
39347;DHT22;26262;49.836;6.632;2023-06-10T03:23:39;13.10;99.90
39347;DHT22;26262;49.836;6.632;2023-06-10T03:26:05;12.90;99.90
39347;DHT22;26262;49.836;6.632;2023-06-10T03:28:31;12.80;99.90
39347;DHT22;26262;49.836;6.632;2023-06-10T03:30:57;12.70;99.90
39347;DHT22;26262;49.836;6.632;2023-06-10T03:33:22;12.90;99.90
39347;DHT22;26262;49.836;6.632;2023-06-10T03:35:48;13.00;99.90
39347;DHT22;26262;49.836;6.632;2023-06-10T03:38:13;13.00;99.90
39347;DHT22;26262;49.836;6.632;2023-06-10T03:40:39;13.00;99.90
39347;DHT22;26262;49.836;6.632;2023-06-10T03:43:05;13.10;99.90
39347;DHT22;26262;49.836;6.632;2023-06-10T03:45:30;13.20;99.90
39347;DHT22;26262;49.836;6.632;2023-06-10T03:47:57;13.30;99.90
39347;DHT22;26262;49.836;6.632;2023-06-10T03:50:23;13.40;99.90
39347;DHT22;26262;49.836;6.632;2023-06-10T03:52:49;13.50;99.90
39347;DHT22;26262;49.836;6.632;2023-06-10T03:55:15;13.60;99.90
39347;DHT22;26262;49.836;6.632;2023-06-10T03:57:42;13.50;99.90
39347;DHT22;26262;49.836;6.632;2023-06-10T04:00:08;13.10;99.90
39347;DHT22;26262;49.836;6.632;2023-06-10T04:02:38;13.10;99.90
39347;DHT22;26262;49.836;6.632;2023-06-10T04:05:07;13.00;99.90
39347;DHT22;26262;49.836;6.632;2023-06-10T04:07:32;13.20;99.90
39347;DHT22;26262;49.836;6.632;2023-06-10T04:09:59;13.20;99.90
39347;DHT22;26262;49.836;6.632;2023-06-10T04:12:25;13.30;99.90
39347;DHT22;26262;49.836;6.632;2023-06-10T04:14:50;13.20;99.90
39347;DHT22;26262;49.836;6.632;2023-06-10T04:17:17;13.30;99.90
39347;DHT22;26262;49.836;6.632;2023-06-10T04:19:43;13.30;99.90
39347;DHT22;26262;49.836;6.632;2023-06-10T04:22:08;13.40;99.90
39347;DHT22;26262;49.836;6.632;2023-06-10T04:24:34;13.50;99.90
39347;DHT22;26262;49.836;6.632;2023-06-10T04:27:00;13.30;99.90
39347;DHT22;26262;49.836;6.632;2023-06-10T04:29:26;13.20;99.90
39347;DHT22;26262;49.836;6.632;2023-06-10T04:31:52;13.40;99.90
39347;DHT22;26262;49.836;6.632;2023-06-10T04:34:17;13.40;99.90
39347;DHT22;26262;49.836;6.632;2023-06-10T04:36:43;13.30;99.90
39347;DHT22;26262;49.836;6.632;2023-06-10T04:39:08;13.40;99.90
39347;DHT22;26262;49.836;6.632;2023-06-10T04:41:34;13.50;99.90
39347;DHT22;26262;49.836;6.632;2023-06-10T04:44:00;13.50;99.90
39347;DHT22;26262;49.836;6.632;2023-06-10T04:46:25;13.60;99.90
39347;DHT22;26262;49.836;6.632;2023-06-10T04:48:51;13.70;99.90
39347;DHT22;26262;49.836;6.632;2023-06-10T04:51:16;13.70;99.90
39347;DHT22;26262;49.836;6.632;2023-06-10T04:53:42;13.80;99.90
39347;DHT22;26262;49.836;6.632;2023-06-10T04:56:08;13.80;99.90
39347;DHT22;26262;49.836;6.632;2023-06-10T04:58:33;14.00;99.90
39347;DHT22;26262;49.836;6.632;2023-06-10T05:00:59;14.00;99.90
39347;DHT22;26262;49.836;6.632;2023-06-10T05:03:26;14.00;99.90
39347;DHT22;26262;49.836;6.632;2023-06-10T05:05:51;14.10;99.90
39347;DHT22;26262;49.836;6.632;2023-06-10T05:08:18;14.10;99.90
39347;DHT22;26262;49.836;6.632;2023-06-10T05:10:43;14.20;99.90
39347;DHT22;26262;49.836;6.632;2023-06-10T05:13:09;14.40;99.90
39347;DHT22;26262;49.836;6.632;2023-06-10T05:15:34;14.40;99.90
39347;DHT22;26262;49.836;6.632;2023-06-10T05:18:00;14.50;99.90
39347;DHT22;26262;49.836;6.632;2023-06-10T05:20:28;14.70;99.90
39347;DHT22;26262;49.836;6.632;2023-06-10T05:22:54;14.80;99.90
39347;DHT22;26262;49.836;6.632;2023-06-10T05:25:20;14.80;99.90
39347;DHT22;26262;49.836;6.632;2023-06-10T05:27:46;14.70;99.90
39347;DHT22;26262;49.836;6.632;2023-06-10T05:30:12;14.90;99.90
39347;DHT22;26262;49.836;6.632;2023-06-10T05:32:38;15.00;99.90
39347;DHT22;26262;49.836;6.632;2023-06-10T05:35:03;15.10;99.90
39347;DHT22;26262;49.836;6.632;2023-06-10T05:37:30;15.20;99.90
39347;DHT22;26262;49.836;6.632;2023-06-10T05:39:55;15.30;99.90
39347;DHT22;26262;49.836;6.632;2023-06-10T05:42:21;15.50;99.90
39347;DHT22;26262;49.836;6.632;2023-06-10T05:44:46;15.50;99.90
39347;DHT22;26262;49.836;6.632;2023-06-10T05:47:12;15.60;99.90
39347;DHT22;26262;49.836;6.632;2023-06-10T05:49:37;15.50;99.90
39347;DHT22;26262;49.836;6.632;2023-06-10T05:52:03;15.60;99.90
39347;DHT22;26262;49.836;6.632;2023-06-10T05:54:29;15.70;99.90
39347;DHT22;26262;49.836;6.632;2023-06-10T05:56:54;15.90;99.90
39347;DHT22;26262;49.836;6.632;2023-06-10T05:59:20;16.00;99.90
39347;DHT22;26262;49.836;6.632;2023-06-10T06:01:48;16.00;99.90
39347;DHT22;26262;49.836;6.632;2023-06-10T06:04:14;16.10;99.90
39347;DHT22;26262;49.836;6.632;2023-06-10T06:06:39;16.10;99.90
39347;DHT22;26262;49.836;6.632;2023-06-10T06:09:05;16.20;99.90
39347;DHT22;26262;49.836;6.632;2023-06-10T06:11:31;16.40;99.90
39347;DHT22;26262;49.836;6.632;2023-06-10T06:13:57;16.50;99.90
39347;DHT22;26262;49.836;6.632;2023-06-10T06:16:23;16.70;99.90
39347;DHT22;26262;49.836;6.632;2023-06-10T06:18:48;16.80;99.90
39347;DHT22;26262;49.836;6.632;2023-06-10T06:21:14;17.00;99.90
39347;DHT22;26262;49.836;6.632;2023-06-10T06:23:39;17.00;99.90
39347;DHT22;26262;49.836;6.632;2023-06-10T06:26:05;17.10;99.90
39347;DHT22;26262;49.836;6.632;2023-06-10T06:28:30;17.20;99.90
39347;DHT22;26262;49.836;6.632;2023-06-10T06:30:57;17.40;99.90
39347;DHT22;26262;49.836;6.632;2023-06-10T06:33:22;17.50;99.90
39347;DHT22;26262;49.836;6.632;2023-06-10T06:35:48;17.50;99.90
39347;DHT22;26262;49.836;6.632;2023-06-10T06:38:13;17.70;99.90
39347;DHT22;26262;49.836;6.632;2023-06-10T06:40:39;17.80;99.90
39347;DHT22;26262;49.836;6.632;2023-06-10T06:43:04;17.90;99.90
39347;DHT22;26262;49.836;6.632;2023-06-10T06:45:30;18.10;99.90
39347;DHT22;26262;49.836;6.632;2023-06-10T06:47:55;18.20;99.90
39347;DHT22;26262;49.836;6.632;2023-06-10T06:50:21;18.30;99.90
39347;DHT22;26262;49.836;6.632;2023-06-10T06:52:47;18.50;99.90
39347;DHT22;26262;49.836;6.632;2023-06-10T06:55:12;18.60;99.90
39347;DHT22;26262;49.836;6.632;2023-06-10T06:57:38;18.70;99.90
39347;DHT22;26262;49.836;6.632;2023-06-10T07:00:04;18.90;99.90
39347;DHT22;26262;49.836;6.632;2023-06-10T07:02:30;19.00;99.90
39347;DHT22;26262;49.836;6.632;2023-06-10T07:04:57;19.20;99.90
39347;DHT22;26262;49.836;6.632;2023-06-10T07:07:24;19.30;99.90
39347;DHT22;26262;49.836;6.632;2023-06-10T07:09:49;19.50;99.90
39347;DHT22;26262;49.836;6.632;2023-06-10T07:12:15;19.70;99.90
39347;DHT22;26262;49.836;6.632;2023-06-10T07:14:41;19.80;99.90
39347;DHT22;26262;49.836;6.632;2023-06-10T07:17:07;20.00;99.90
39347;DHT22;26262;49.836;6.632;2023-06-10T07:19:32;20.10;99.90
39347;DHT22;26262;49.836;6.632;2023-06-10T07:21:58;20.30;99.90
39347;DHT22;26262;49.836;6.632;2023-06-10T07:24:23;20.40;99.90
39347;DHT22;26262;49.836;6.632;2023-06-10T07:26:50;20.50;99.90
39347;DHT22;26262;49.836;6.632;2023-06-10T07:29:15;20.70;99.90
39347;DHT22;26262;49.836;6.632;2023-06-10T07:31:41;20.90;99.90
39347;DHT22;26262;49.836;6.632;2023-06-10T07:34:07;21.10;99.90
39347;DHT22;26262;49.836;6.632;2023-06-10T07:36:33;21.30;99.90
39347;DHT22;26262;49.836;6.632;2023-06-10T07:38:58;21.40;99.90
39347;DHT22;26262;49.836;6.632;2023-06-10T07:41:24;21.50;99.90
39347;DHT22;26262;49.836;6.632;2023-06-10T07:43:55;21.60;99.90
39347;DHT22;26262;49.836;6.632;2023-06-10T07:46:22;21.80;99.90
39347;DHT22;26262;49.836;6.632;2023-06-10T07:48:48;21.90;99.90
39347;DHT22;26262;49.836;6.632;2023-06-10T07:51:15;22.20;99.90
39347;DHT22;26262;49.836;6.632;2023-06-10T07:53:41;22.30;99.90
39347;DHT22;26262;49.836;6.632;2023-06-10T07:56:07;22.40;99.90
39347;DHT22;26262;49.836;6.632;2023-06-10T07:58:32;22.70;99.90
39347;DHT22;26262;49.836;6.632;2023-06-10T08:00:58;22.80;99.90
39347;DHT22;26262;49.836;6.632;2023-06-10T08:03:23;23.00;99.90
39347;DHT22;26262;49.836;6.632;2023-06-10T08:05:49;23.20;99.90
39347;DHT22;26262;49.836;6.632;2023-06-10T08:08:14;23.20;99.90
39347;DHT22;26262;49.836;6.632;2023-06-10T08:10:40;23.40;99.90
39347;DHT22;26262;49.836;6.632;2023-06-10T08:13:07;23.60;99.90
39347;DHT22;26262;49.836;6.632;2023-06-10T08:15:32;23.70;99.90
39347;DHT22;26262;49.836;6.632;2023-06-10T08:17:58;23.80;99.90
39347;DHT22;26262;49.836;6.632;2023-06-10T08:20:24;23.90;99.90
39347;DHT22;26262;49.836;6.632;2023-06-10T08:22:50;24.10;99.90
39347;DHT22;26262;49.836;6.632;2023-06-10T08:25:15;24.50;96.90
39347;DHT22;26262;49.836;6.632;2023-06-10T08:27:41;24.60;98.30
39347;DHT22;26262;49.836;6.632;2023-06-10T08:30:07;24.70;97.50
39347;DHT22;26262;49.836;6.632;2023-06-10T08:32:33;24.90;97.20
39347;DHT22;26262;49.836;6.632;2023-06-10T08:34:59;25.10;97.90
39347;DHT22;26262;49.836;6.632;2023-06-10T08:37:24;25.20;96.70
39347;DHT22;26262;49.836;6.632;2023-06-10T08:39:50;25.20;97.40
39347;DHT22;26262;49.836;6.632;2023-06-10T08:42:39;25.30;97.90
39347;DHT22;26262;49.836;6.632;2023-06-10T08:45:11;25.50;96.00
39347;DHT22;26262;49.836;6.632;2023-06-10T08:47:39;25.50;96.20
39347;DHT22;26262;49.836;6.632;2023-06-10T08:50:07;25.60;95.10
39347;DHT22;26262;49.836;6.632;2023-06-10T08:52:37;25.90;96.40
39347;DHT22;26262;49.836;6.632;2023-06-10T08:55:05;26.00;94.80
39347;DHT22;26262;49.836;6.632;2023-06-10T08:57:33;26.00;94.10
39347;DHT22;26262;49.836;6.632;2023-06-10T08:59:59;26.10;94.10
39347;DHT22;26262;49.836;6.632;2023-06-10T09:02:27;26.20;95.10
39347;DHT22;26262;49.836;6.632;2023-06-10T09:04:53;26.30;94.50
39347;DHT22;26262;49.836;6.632;2023-06-10T09:07:21;26.40;94.40
39347;DHT22;26262;49.836;6.632;2023-06-10T09:09:48;26.40;94.50
39347;DHT22;26262;49.836;6.632;2023-06-10T09:12:14;26.50;92.70
39347;DHT22;26262;49.836;6.632;2023-06-10T09:14:44;26.70;92.80
39347;DHT22;26262;49.836;6.632;2023-06-10T09:17:10;26.70;92.70
39347;DHT22;26262;49.836;6.632;2023-06-10T09:19:36;26.80;92.10
39347;DHT22;26262;49.836;6.632;2023-06-10T09:22:03;26.90;92.70
39347;DHT22;26262;49.836;6.632;2023-06-10T09:24:29;27.00;92.90
39347;DHT22;26262;49.836;6.632;2023-06-10T09:27:06;27.10;91.90
39347;DHT22;26262;49.836;6.632;2023-06-10T09:29:51;27.20;92.00
39347;DHT22;26262;49.836;6.632;2023-06-10T09:32:18;27.30;91.60
39347;DHT22;26262;49.836;6.632;2023-06-10T09:34:44;27.50;93.10
39347;DHT22;26262;49.836;6.632;2023-06-10T09:37:10;27.50;90.40
39347;DHT22;26262;49.836;6.632;2023-06-10T09:39:38;27.50;90.40
39347;DHT22;26262;49.836;6.632;2023-06-10T09:42:16;27.50;90.90
39347;DHT22;26262;49.836;6.632;2023-06-10T09:44:42;27.50;90.20
39347;DHT22;26262;49.836;6.632;2023-06-10T09:47:22;27.50;90.80
39347;DHT22;26262;49.836;6.632;2023-06-10T09:49:49;27.70;90.80
39347;DHT22;26262;49.836;6.632;2023-06-10T09:52:21;27.80;90.20
39347;DHT22;26262;49.836;6.632;2023-06-10T09:54:48;28.00;90.50
39347;DHT22;26262;49.836;6.632;2023-06-10T09:57:14;28.20;86.50
39347;DHT22;26262;49.836;6.632;2023-06-10T09:59:41;28.30;87.10
39347;DHT22;26262;49.836;6.632;2023-06-10T10:02:13;28.40;85.60
39347;DHT22;26262;49.836;6.632;2023-06-10T10:04:39;28.60;86.30
39347;DHT22;26262;49.836;6.632;2023-06-10T10:07:05;28.70;84.40
39347;DHT22;26262;49.836;6.632;2023-06-10T10:09:32;28.70;89.10
39347;DHT22;26262;49.836;6.632;2023-06-10T10:11:59;29.30;85.70
39347;DHT22;26262;49.836;6.632;2023-06-10T10:14:27;29.40;86.40
39347;DHT22;26262;49.836;6.632;2023-06-10T10:16:54;29.50;83.60
39347;DHT22;26262;49.836;6.632;2023-06-10T10:19:24;29.60;84.30
39347;DHT22;26262;49.836;6.632;2023-06-10T10:21:53;29.30;81.80
39347;DHT22;26262;49.836;6.632;2023-06-10T10:24:26;29.30;85.40
39347;DHT22;26262;49.836;6.632;2023-06-10T10:26:58;29.40;81.50
39347;DHT22;26262;49.836;6.632;2023-06-10T10:29:31;29.60;84.30
39347;DHT22;26262;49.836;6.632;2023-06-10T10:31:59;29.60;82.10
39347;DHT22;26262;49.836;6.632;2023-06-10T10:35:07;29.60;80.20
39347;DHT22;26262;49.836;6.632;2023-06-10T10:37:33;30.00;80.30
39347;DHT22;26262;49.836;6.632;2023-06-10T10:39:59;30.30;78.80
39347;DHT22;26262;49.836;6.632;2023-06-10T10:42:26;29.90;77.80
39347;DHT22;26262;49.836;6.632;2023-06-10T10:44:52;29.40;76.90
39347;DHT22;26262;49.836;6.632;2023-06-10T10:47:21;29.50;77.10
39347;DHT22;26262;49.836;6.632;2023-06-10T10:49:49;29.70;76.50
39347;DHT22;26262;49.836;6.632;2023-06-10T10:52:16;30.20;77.30
39347;DHT22;26262;49.836;6.632;2023-06-10T10:54:46;30.20;75.00
39347;DHT22;26262;49.836;6.632;2023-06-10T10:57:22;30.40;74.70
39347;DHT22;26262;49.836;6.632;2023-06-10T10:59:54;30.60;76.60
39347;DHT22;26262;49.836;6.632;2023-06-10T11:02:43;31.00;72.80
39347;DHT22;26262;49.836;6.632;2023-06-10T11:05:11;31.10;73.10
39347;DHT22;26262;49.836;6.632;2023-06-10T11:07:37;31.30;70.60
39347;DHT22;26262;49.836;6.632;2023-06-10T11:10:09;31.60;71.60
39347;DHT22;26262;49.836;6.632;2023-06-10T11:15:13;31.90;69.20
39347;DHT22;26262;49.836;6.632;2023-06-10T11:18:08;31.80;69.80
39347;DHT22;26262;49.836;6.632;2023-06-10T11:28:39;32.00;67.80
39347;DHT22;26262;49.836;6.632;2023-06-10T11:31:05;31.90;65.20
39347;DHT22;26262;49.836;6.632;2023-06-10T11:33:31;31.90;67.10
39347;DHT22;26262;49.836;6.632;2023-06-10T11:35:57;32.20;66.90
39347;DHT22;26262;49.836;6.632;2023-06-10T11:38:24;32.40;65.60
39347;DHT22;26262;49.836;6.632;2023-06-10T11:40:50;32.70;65.20
39347;DHT22;26262;49.836;6.632;2023-06-10T11:43:19;32.90;62.70
39347;DHT22;26262;49.836;6.632;2023-06-10T11:45:45;32.90;62.60
39347;DHT22;26262;49.836;6.632;2023-06-10T11:48:12;32.60;61.20
39347;DHT22;26262;49.836;6.632;2023-06-10T11:50:39;32.30;60.80
39347;DHT22;26262;49.836;6.632;2023-06-10T11:53:08;32.20;62.30
39347;DHT22;26262;49.836;6.632;2023-06-10T11:55:45;32.30;61.50
39347;DHT22;26262;49.836;6.632;2023-06-10T11:58:19;32.80;61.40
39347;DHT22;26262;49.836;6.632;2023-06-10T12:00:55;33.30;62.70
39347;DHT22;26262;49.836;6.632;2023-06-10T12:03:24;32.30;60.50
39347;DHT22;26262;49.836;6.632;2023-06-10T12:08:24;32.80;60.00
39347;DHT22;26262;49.836;6.632;2023-06-10T12:10:50;32.70;62.00
39347;DHT22;26262;49.836;6.632;2023-06-10T12:13:15;32.60;59.20
39347;DHT22;26262;49.836;6.632;2023-06-10T12:15:43;32.30;58.30
39347;DHT22;26262;49.836;6.632;2023-06-10T12:18:19;31.90;58.70
39347;DHT22;26262;49.836;6.632;2023-06-10T12:20:45;32.40;59.60
39347;DHT22;26262;49.836;6.632;2023-06-10T12:23:11;32.60;62.70
39347;DHT22;26262;49.836;6.632;2023-06-10T12:25:37;33.10;59.40
39347;DHT22;26262;49.836;6.632;2023-06-10T12:28:04;33.60;57.20
39347;DHT22;26262;49.836;6.632;2023-06-10T12:30:32;33.80;56.20
39347;DHT22;26262;49.836;6.632;2023-06-10T12:32:58;33.40;59.40
39347;DHT22;26262;49.836;6.632;2023-06-10T12:35:27;33.80;55.30
39347;DHT22;26262;49.836;6.632;2023-06-10T12:37:57;33.30;57.50
39347;DHT22;26262;49.836;6.632;2023-06-10T12:40:36;33.10;58.50
39347;DHT22;26262;49.836;6.632;2023-06-10T12:43:02;32.20;57.30
39347;DHT22;26262;49.836;6.632;2023-06-10T12:45:32;32.30;61.90
39347;DHT22;26262;49.836;6.632;2023-06-10T12:48:10;32.70;58.40
39347;DHT22;26262;49.836;6.632;2023-06-10T12:50:38;32.80;57.50
39347;DHT22;26262;49.836;6.632;2023-06-10T12:53:04;32.70;59.30
39347;DHT22;26262;49.836;6.632;2023-06-10T12:55:31;32.70;57.30
39347;DHT22;26262;49.836;6.632;2023-06-10T12:57:58;32.60;57.90
39347;DHT22;26262;49.836;6.632;2023-06-10T13:00:24;32.80;59.50
39347;DHT22;26262;49.836;6.632;2023-06-10T13:02:55;32.90;58.30
39347;DHT22;26262;49.836;6.632;2023-06-10T13:05:21;32.60;58.10
39347;DHT22;26262;49.836;6.632;2023-06-10T13:07:47;32.60;58.70
39347;DHT22;26262;49.836;6.632;2023-06-10T13:10:14;32.80;60.60
39347;DHT22;26262;49.836;6.632;2023-06-10T13:12:39;32.70;58.40
39347;DHT22;26262;49.836;6.632;2023-06-10T13:15:06;33.20;58.00
39347;DHT22;26262;49.836;6.632;2023-06-10T13:17:31;33.60;56.80
39347;DHT22;26262;49.836;6.632;2023-06-10T13:19:59;33.90;56.10
39347;DHT22;26262;49.836;6.632;2023-06-10T13:22:25;33.70;57.10
39347;DHT22;26262;49.836;6.632;2023-06-10T13:24:52;33.40;56.70
39347;DHT22;26262;49.836;6.632;2023-06-10T13:27:17;34.00;58.30
39347;DHT22;26262;49.836;6.632;2023-06-10T13:29:43;34.20;58.00
39347;DHT22;26262;49.836;6.632;2023-06-10T13:32:08;34.20;57.00
39347;DHT22;26262;49.836;6.632;2023-06-10T13:34:35;34.50;57.50
39347;DHT22;26262;49.836;6.632;2023-06-10T13:37:01;34.60;56.40
39347;DHT22;26262;49.836;6.632;2023-06-10T13:39:29;34.20;56.00
39347;DHT22;26262;49.836;6.632;2023-06-10T13:41:54;34.30;57.20
39347;DHT22;26262;49.836;6.632;2023-06-10T13:44:20;34.70;56.80
39347;DHT22;26262;49.836;6.632;2023-06-10T13:46:46;34.70;56.10
39347;DHT22;26262;49.836;6.632;2023-06-10T13:49:11;34.90;56.30
39347;DHT22;26262;49.836;6.632;2023-06-10T13:51:37;34.70;56.90
39347;DHT22;26262;49.836;6.632;2023-06-10T13:54:02;35.10;56.30
39347;DHT22;26262;49.836;6.632;2023-06-10T13:56:28;35.00;56.40
39347;DHT22;26262;49.836;6.632;2023-06-10T13:58:53;34.90;56.30
39347;DHT22;26262;49.836;6.632;2023-06-10T14:01:19;33.80;58.10
39347;DHT22;26262;49.836;6.632;2023-06-10T14:03:44;34.20;55.20
39347;DHT22;26262;49.836;6.632;2023-06-10T14:06:10;34.00;56.70
39347;DHT22;26262;49.836;6.632;2023-06-10T14:08:38;34.20;54.10
39347;DHT22;26262;49.836;6.632;2023-06-10T14:11:04;33.60;56.90
39347;DHT22;26262;49.836;6.632;2023-06-10T14:13:29;34.00;57.90
39347;DHT22;26262;49.836;6.632;2023-06-10T14:15:55;34.10;56.40
39347;DHT22;26262;49.836;6.632;2023-06-10T14:18:20;33.70;54.50
39347;DHT22;26262;49.836;6.632;2023-06-10T14:20:46;33.90;58.50
39347;DHT22;26262;49.836;6.632;2023-06-10T14:23:11;34.40;56.30
39347;DHT22;26262;49.836;6.632;2023-06-10T14:25:37;34.70;56.20
39347;DHT22;26262;49.836;6.632;2023-06-10T14:28:03;34.90;55.00
39347;DHT22;26262;49.836;6.632;2023-06-10T14:30:28;34.70;55.00
39347;DHT22;26262;49.836;6.632;2023-06-10T14:32:54;33.80;54.60
39347;DHT22;26262;49.836;6.632;2023-06-10T14:35:19;33.50;55.10
39347;DHT22;26262;49.836;6.632;2023-06-10T14:37:46;31.90;57.30
39347;DHT22;26262;49.836;6.632;2023-06-10T14:40:12;32.00;56.60
39347;DHT22;26262;49.836;6.632;2023-06-10T14:42:37;31.60;57.00
39347;DHT22;26262;49.836;6.632;2023-06-10T14:45:04;32.30;57.90
39347;DHT22;26262;49.836;6.632;2023-06-10T14:47:30;32.20;57.10
39347;DHT22;26262;49.836;6.632;2023-06-10T14:49:56;32.40;58.30
39347;DHT22;26262;49.836;6.632;2023-06-10T14:52:21;32.60;56.70
39347;DHT22;26262;49.836;6.632;2023-06-10T14:54:47;33.00;56.90
39347;DHT22;26262;49.836;6.632;2023-06-10T14:57:13;33.30;56.00
39347;DHT22;26262;49.836;6.632;2023-06-10T14:59:38;33.40;56.20
39347;DHT22;26262;49.836;6.632;2023-06-10T15:02:04;33.60;56.60
39347;DHT22;26262;49.836;6.632;2023-06-10T15:04:29;33.50;55.80
39347;DHT22;26262;49.836;6.632;2023-06-10T15:06:55;33.50;56.20
39347;DHT22;26262;49.836;6.632;2023-06-10T15:09:21;33.70;55.90
39347;DHT22;26262;49.836;6.632;2023-06-10T15:11:46;33.70;55.50
39347;DHT22;26262;49.836;6.632;2023-06-10T15:14:12;33.60;56.00
39347;DHT22;26262;49.836;6.632;2023-06-10T15:16:37;33.70;55.10
39347;DHT22;26262;49.836;6.632;2023-06-10T15:19:03;33.70;57.20
39347;DHT22;26262;49.836;6.632;2023-06-10T15:21:29;33.80;56.50
39347;DHT22;26262;49.836;6.632;2023-06-10T15:23:54;34.00;57.40
39347;DHT22;26262;49.836;6.632;2023-06-10T15:26:20;33.80;54.90
39347;DHT22;26262;49.836;6.632;2023-06-10T15:28:46;33.50;56.60
39347;DHT22;26262;49.836;6.632;2023-06-10T15:31:11;33.40;55.90
39347;DHT22;26262;49.836;6.632;2023-06-10T15:33:37;32.10;55.70
39347;DHT22;26262;49.836;6.632;2023-06-10T15:36:03;32.10;58.80
39347;DHT22;26262;49.836;6.632;2023-06-10T15:38:30;32.20;58.40
39347;DHT22;26262;49.836;6.632;2023-06-10T15:40:55;32.40;56.20
39347;DHT22;26262;49.836;6.632;2023-06-10T15:43:21;32.40;56.50
39347;DHT22;26262;49.836;6.632;2023-06-10T15:45:46;32.60;54.90
39347;DHT22;26262;49.836;6.632;2023-06-10T15:48:12;32.30;56.30